Terminal Aerodrome Forecast
Issued by NWS Spokane, WA

Home | Current Version | Previous Version | Text Only | Print | Product List | Glossary On
Versions: 1 2 3 4 5 6 7 8 9 10 11 12 13 14 15 16 17 18 19 20 21 22 23 24
000
FTUS46 KOTX 012320
TAFGEG
TAF
KGEG 012320Z 0200/0224 24012G23KT P6SM BKN070 BKN150
     FM020200 22011KT P6SM FEW070 SCT150
     FM021200 24006KT P6SM FEW150
     FM021900 27008KT P6SM FEW080=

USA.gov is the U.S. government's official web portal to all federal, state and local government web resources and services.